Sunray — D5LD9 — position and weather

sailwx.info

Track history (hours):
 
Tides and Currents Weather Stations Pressure Air Temp Water Temp Dewpoint Dewpoint Depression Visibility Wind Speed Wind Dir Waves Ship Positions

Sunray

Last reported at 2017-Nov-17 09:03 UTC. Time now 2017-Dec-13 17:01 UTC.
Position N 30°19' E 032°23'.
Warning: this ship's position is 26 days out of date.

Length 228 m; draft 12.2 m.

Type: Tanker. MMSI: 636017480.

Date/timePositionNaut miles runAvg speedWind from/ knotsBaromVisibWave heightAir tempDewpointWater temp
2017-Nov-17 09:03N 30°19' E 032°23'0 0.0
2017-Nov-17 07:03N 30°19' E 032°23'0 0.2
2017-Nov-17 06:57N 30°19' E 032°23'0 0.2
2017-Nov-17 06:30N 30°19' E 032°23'0 0.2
2017-Nov-17 06:00N 30°20' E 032°23'0 0.2
2017-Nov-17 05:24N 30°20' E 032°23'0 0.2
2017-Nov-17 05:00N 30°20' E 032°23'3 5.0
2017-Nov-17 04:30N 30°22' E 032°22'62 8.5
2017-Nov-16 21:16N 31°24' E 032°23'10 5.3
2017-Nov-16 19:27N 31°30' E 032°14'613.0
2017-Nov-16 19:00N 31°34' E 032°10'713.2
2017-Nov-16 18:30N 31°39' E 032°04'713.2
2017-Nov-16 18:00N 31°44' E 031°59'9313.7
2017-Nov-16 11:10N 32°15' E 030°15'  
2017-Nov-10 15:13N 36°01' W 005°12'312.1
2017-Nov-10 15:01N 36°00' W 005°15'5 9.0
2017-Nov-10 14:29N 35°59' W 005°21'612.0
2017-Nov-10 14:00N 35°57' W 005°28'26310.3
2017-Nov-09 12:31N 38°19' W 010°05'012.6
2017-Nov-09 12:30N 38°19' W 010°05'612.4
2017-Nov-09 12:00N 38°25' W 010°07'612.5
2017-Nov-09 11:30N 38°31' W 010°09'612.2
2017-Nov-09 11:00N 38°37' W 010°10'611.9
2017-Nov-09 10:30N 38°43' W 010°11'611.9
2017-Nov-09 10:00N 38°49' W 010°11'612.4
2017-Nov-09 09:30N 38°55' W 010°11'612.5
2017-Nov-09 09:00N 39°01' W 010°11'612.2
2017-Nov-09 08:30N 39°08' W 010°11'611.9
2017-Nov-09 08:00N 39°14' W 010°12'1211.9
2017-Nov-09 07:00N 39°25' W 010°12'  
Track history (hours):
 
Tides and Currents Weather Stations Pressure Air Temp Water Temp Dewpoint Dewpoint Depression Visibility Wind Speed Wind Dir Waves Ship Positions

Sunray

Last reported at 2017-Nov-17 09:03 UTC. Time now 2017-Dec-13 17:01 UTC.
Position N 30°19' E 032°23'.
Warning: this ship's position is 26 days out of date.

Length 228 m; draft 12.2 m.

Type: Tanker. MMSI: 636017480.

Date/timePositionNaut miles runAvg speedWind from/ knotsBaromVisibWave heightAir tempDewpointWater temp
2017-Nov-17 09:03N 30°19' E 032°23'0 0.0
2017-Nov-17 07:03N 30°19' E 032°23'0 0.2
2017-Nov-17 06:57N 30°19' E 032°23'0 0.2
2017-Nov-17 06:30N 30°19' E 032°23'0 0.2
2017-Nov-17 06:00N 30°20' E 032°23'0 0.2
2017-Nov-17 05:24N 30°20' E 032°23'0 0.2
2017-Nov-17 05:00N 30°20' E 032°23'3 5.0
2017-Nov-17 04:30N 30°22' E 032°22'62 8.5
2017-Nov-16 21:16N 31°24' E 032°23'10 5.3
2017-Nov-16 19:27N 31°30' E 032°14'613.0
2017-Nov-16 19:00N 31°34' E 032°10'713.2
2017-Nov-16 18:30N 31°39' E 032°04'713.2
2017-Nov-16 18:00N 31°44' E 031°59'9313.7
2017-Nov-16 11:10N 32°15' E 030°15'  
2017-Nov-10 15:13N 36°01' W 005°12'312.1
2017-Nov-10 15:01N 36°00' W 005°15'5 9.0
2017-Nov-10 14:29N 35°59' W 005°21'612.0
2017-Nov-10 14:00N 35°57' W 005°28'26310.3
2017-Nov-09 12:31N 38°19' W 010°05'012.6
2017-Nov-09 12:30N 38°19' W 010°05'612.4
2017-Nov-09 12:00N 38°25' W 010°07'612.5
2017-Nov-09 11:30N 38°31' W 010°09'612.2
2017-Nov-09 11:00N 38°37' W 010°10'611.9
2017-Nov-09 10:30N 38°43' W 010°11'611.9
2017-Nov-09 10:00N 38°49' W 010°11'612.4
2017-Nov-09 09:30N 38°55' W 010°11'612.5
2017-Nov-09 09:00N 39°01' W 010°11'612.2
2017-Nov-09 08:30N 39°08' W 010°11'611.9
2017-Nov-09 08:00N 39°14' W 010°12'1211.9
2017-Nov-09 07:00N 39°25' W 010°12'  

Dump ship's entire track history